Etusivu
METAR-TAF:

METAR-TAF

Lentoasemat :

Hondo, Texas, Yhdysvallat

Leveyspiiri: 29-21-34N, Pituuspiiri: 099-10-27W, korkeus merenpinnasta: 283 m

Tämänhetkinen sää

Tämä raportti tehtiin 54 minuuttia sitten, kello 17.51 UTC
Tuuli 12 kn etelästä/kaakosta puuskistuen 18 kn:hen
Lämpötila 33°C
Kosteus 49%
Ilmanpaine 1018 hPa
Näkyvyys: 16.1 km
Muutamia pilviä 4400 ft:n korkeudessa

METAR: KHDO 071751Z AUTO 16012G18KT 10SM FEW044 33/21 A3005 RMK AO2 SLP158 T03330206 10333 20244 58007

Aika: 13:45 (18:45 UTC)


TAF: puuttuu

Säähavainnot ja -ennusteet yli 4000 lentoasemalta (METAR- ja TAF-raportit).

Käytössä olevat sääasemat on merkitty karttaan keltaisilla ja punaisilla pisteillä.

Aseta hiiri pisteen päälle nähdäksesi sääaseman nimen.

Klikkaa sitten nähdäksesi säähavainnot ja -ennusteet.

Kartan vaihtaminen: klikkaa mustalla rastilla varustettuja vihreitä pisteitä, niin voit zoomata sisään; viivalla varustettua vihreää pistettä, niin voit zoomata ulos tai vihreitä nuolia, niin pääset viereisille kartoille.


METAR-TAF: